Time;durP1;ratioP1;P1;durP2;ratioP2;P2;SDS_P1;SDS_P2;PMS_P1;PMS_P2;Temp;Humidity;BMP_temperature;BMP_pressure;BME280_temperature;BME280_humidity;BME280_pressure;Samples;Min_cycle;Max_cycle;Signal;HPM_P1;HPM_P2
2021/05/22 00:01:46;;;;;;;25.08;6.22;;;12.10;99.90;;;12.31;76.30;99569.06;5097942;28;20098;-81
2021/05/22 00:04:14;;;;;;;34.28;7.00;;;12.10;99.90;;;12.33;76.57;99572.53;5096874;28;20055;-80
2021/05/22 00:06:42;;;;;;;27.17;7.20;;;12.10;99.90;;;12.25;76.47;99560.47;5097721;28;20044;-81
2021/05/22 00:09:10;;;;;;;24.30;5.75;;;12.00;99.90;;;12.18;76.65;99548.31;5095936;28;20044;-81
2021/05/22 00:11:38;;;;;;;26.15;6.60;;;12.00;99.90;;;12.02;76.37;99541.78;5095849;28;20071;-81
2021/05/22 00:14:07;;;;;;;25.58;6.50;;;11.90;99.90;;;12.01;76.97;99532.97;5095978;28;20062;-82
2021/05/22 00:16:36;;;;;;;28.73;5.65;;;11.90;99.90;;;12.22;77.28;99555.25;5095450;28;20047;-81
2021/05/22 00:19:05;;;;;;;24.90;6.20;;;12.00;99.90;;;12.16;78.12;99569.56;5094809;28;20409;-81
2021/05/22 00:21:33;;;;;;;24.40;6.72;;;11.90;99.90;;;12.06;78.36;99548.72;5094555;28;20051;-80
2021/05/22 00:24:01;;;;;;;29.67;7.40;;;11.90;99.90;;;12.01;79.06;99540.91;5095379;28;20126;-81
2021/05/22 00:26:29;;;;;;;22.45;7.13;;;11.80;99.90;;;12.00;79.28;99548.91;5094303;28;20401;-82
2021/05/22 00:28:57;;;;;;;28.92;6.20;;;11.80;99.90;;;11.99;79.79;99550.69;5094621;28;20119;-82
2021/05/22 00:31:25;;;;;;;22.42;7.28;;;11.70;99.90;;;12.07;79.50;99551.31;5094353;28;20051;-81
2021/05/22 00:33:54;;;;;;;24.63;7.72;;;11.80;99.90;;;12.05;79.25;99546.97;5094175;28;20052;-81
2021/05/22 00:36:22;;;;;;;34.92;7.57;;;11.80;99.90;;;12.06;79.53;99538.13;5094044;28;20444;-81
2021/05/22 00:38:50;;;;;;;22.17;6.15;;;11.80;99.90;;;12.14;79.12;99562.56;5093887;28;20043;-80
2021/05/22 00:41:18;;;;;;;23.45;6.97;;;11.90;99.90;;;12.11;78.58;99570.63;5093967;28;20048;-81
2021/05/22 00:43:46;;;;;;;28.10;7.53;;;11.90;99.90;;;12.15;78.48;99551.06;5093615;28;20047;-82
2021/05/22 00:46:14;;;;;;;19.05;5.70;;;11.90;99.90;;;12.17;78.33;99539.50;5093599;28;20044;-82
2021/05/22 00:48:42;;;;;;;25.60;6.47;;;11.90;99.90;;;12.24;77.89;99532.22;5093500;28;20074;-80
2021/05/22 00:51:11;;;;;;;19.73;5.97;;;12.00;99.90;;;12.28;77.85;99544.44;5093676;28;20055;-82
2021/05/22 00:53:39;;;;;;;19.48;6.20;;;12.00;99.90;;;12.19;78.21;99552.72;5093514;28;20113;-82
2021/05/22 00:56:07;;;;;;;18.85;6.10;;;12.00;99.90;;;12.18;78.76;99548.31;5075399;28;20059;-81
2021/05/22 00:58:36;;;;;;;18.73;6.07;;;12.00;99.90;;;12.10;79.66;99553.00;5093421;28;20429;-82
2021/05/22 01:01:04;;;;;;;20.85;6.15;;;11.90;99.90;;;12.03;80.08;99525.81;5093893;28;20032;-81
2021/05/22 01:03:36;;;;;;;16.08;5.55;;;11.80;99.90;;;12.13;80.52;99519.31;5093539;28;20097;-78
2021/05/22 01:06:12;;;;;;;20.27;6.00;;;11.90;99.90;;;12.06;80.33;99508.97;5093650;28;20040;-81
2021/05/22 01:08:45;;;;;;;26.15;6.43;;;11.80;99.90;;;12.21;80.65;99540.28;5093401;28;20443;-81
2021/05/22 01:11:17;;;;;;;20.55;6.10;;;11.90;99.90;;;12.17;80.77;99506.81;5093536;28;20056;-80
2021/05/22 01:13:53;;;;;;;18.98;6.45;;;11.90;99.90;;;12.09;81.00;99511.50;5093267;28;20109;-81
2021/05/22 01:16:22;;;;;;;22.70;6.60;;;11.90;99.90;;;12.01;81.65;99526.78;5075268;28;20379;-81
2021/05/22 01:18:50;;;;;;;24.33;7.00;;;11.80;99.90;;;11.94;81.87;99519.94;5074917;28;20040;-80
2021/05/22 01:21:20;;;;;;;14.40;6.15;;;11.70;99.90;;;11.81;82.48;99514.16;5093348;28;20085;-81
2021/05/22 01:24:07;;;;;;;20.35;6.45;;;11.60;99.90;;;11.67;82.92;99493.38;5075132;28;20066;-81
2021/05/22 01:26:36;;;;;;;17.13;5.85;;;11.60;99.90;;;11.74;83.04;99534.69;5093344;28;20054;-81
2021/05/22 01:29:04;;;;;;;15.85;5.63;;;11.50;99.90;;;11.72;83.12;99499.44;5093088;28;20487;-81
2021/05/22 01:31:34;;;;;;;20.83;6.40;;;11.50;99.90;;;11.68;83.27;99529.56;5092805;28;20036;-80
2021/05/22 01:34:02;;;;;;;18.15;6.18;;;11.50;99.90;;;11.64;83.33;99522.59;5092867;28;20455;-81
2021/05/22 01:36:30;;;;;;;21.10;6.82;;;11.40;99.90;;;11.54;83.50;99509.66;5093021;28;20054;-80
2021/05/22 01:38:58;;;;;;;13.90;6.00;;;11.40;99.90;;;11.53;83.65;99503.53;5093108;28;20079;-81
2021/05/22 01:41:26;;;;;;;18.75;6.30;;;11.40;99.90;;;11.63;83.67;99520.00;5093085;28;20044;-80
2021/05/22 01:43:59;;;;;;;17.77;6.82;;;11.40;99.90;;;11.59;83.94;99492.72;5074809;28;20066;-81
2021/05/22 01:46:30;;;;;;;19.42;6.00;;;11.40;99.90;;;11.58;84.11;99533.38;5092760;28;20044;-81
2021/05/22 01:48:59;;;;;;;16.58;5.85;;;11.40;99.90;;;11.56;84.29;99487.53;5074847;28;20052;-80
2021/05/22 01:51:28;;;;;;;18.13;5.95;;;11.40;99.90;;;11.54;84.82;99512.31;5092854;28;20056;-80
2021/05/22 01:54:10;;;;;;;18.00;6.05;;;11.30;99.90;;;11.58;84.91;99498.06;5093033;28;20463;-80
2021/05/22 01:56:39;;;;;;;17.23;6.78;;;11.40;99.90;;;11.60;85.31;99501.53;5074857;28;20048;-80
2021/05/22 01:59:08;;;;;;;21.77;6.35;;;11.40;99.90;;;11.60;85.35;99505.06;5093018;28;20039;-80
2021/05/22 02:01:36;;;;;;;28.08;7.25;;;11.40;99.90;;;11.64;85.38;99495.25;5092572;28;20489;-80
2021/05/22 02:04:06;;;;;;;20.80;6.45;;;11.40;99.90;;;10.96;85.21;99391.44;5058120;28;20047;-79
2021/05/22 02:06:41;;;;;;;24.15;6.80;;;11.40;99.90;;;11.51;85.92;99510.66;5092976;28;20093;-79
2021/05/22 02:09:09;;;;;;;19.75;7.70;;;11.30;99.90;;;11.52;86.23;99501.78;5092714;28;20044;-77
2021/05/22 02:11:41;;;;;;;17.38;6.95;;;11.30;99.90;;;11.47;86.12;99490.47;5092701;28;20241;-78
2021/05/22 02:14:12;;;;;;;23.35;7.53;;;11.30;99.90;;;11.53;86.46;99487.66;5092573;28;20051;-76
2021/05/22 02:16:48;;;;;;;19.40;6.47;;;11.30;99.90;;;11.56;86.55;99527.25;5092926;28;20048;-76
2021/05/22 02:19:19;;;;;;;20.48;6.43;;;11.30;99.90;;;11.52;86.18;99501.78;5092463;28;20040;-78
2021/05/22 02:21:47;;;;;;;;;;;11.30;99.90;;;11.55;86.60;99487.59;5095739;28;20040;-79
2021/05/22 02:24:18;;;;;;;24.45;6.85;;;11.30;99.90;;;11.58;86.43;99488.34;5096548;28;19977;-77
2021/05/22 02:26:46;;;;;;;19.92;6.75;;;11.40;99.90;;;11.57;86.22;99484.00;5078147;28;20056;-78
2021/05/22 02:29:19;;;;;;;18.02;6.43;;;11.40;99.90;;;11.34;86.60;99485.59;5096387;28;20036;-78
2021/05/22 02:31:49;;;;;;;21.70;6.18;;;11.30;99.90;;;11.49;87.01;99495.72;5096457;28;20434;-78
2021/05/22 02:34:31;;;;;;;18.10;6.57;;;11.20;99.90;;;11.44;87.17;99485.25;5096388;28;20504;-77
2021/05/22 02:37:00;;;;;;;20.40;6.13;;;11.20;99.90;;;11.47;87.58;99474.59;5096047;28;20040;-77
2021/05/22 02:39:29;;;;;;;23.33;7.22;;;11.20;99.90;;;11.47;87.62;99479.88;5078026;28;20047;-78
2021/05/22 02:42:02;;;;;;;25.13;7.55;;;11.30;99.90;;;11.53;87.55;99471.75;5096021;28;20408;-75
2021/05/22 02:44:32;;;;;;;25.80;7.57;;;11.30;99.90;;;11.53;87.68;99479.69;5096268;28;20151;-77
2021/05/22 02:47:01;;;;;;;22.25;7.32;;;11.30;99.90;;;11.53;87.77;99469.09;5096098;28;20564;-78
2021/05/22 02:49:31;;;;;;;17.50;6.22;;;11.30;99.90;;;11.41;87.88;99477.41;5096016;28;20083;-77
2021/05/22 02:52:01;;;;;;;24.55;7.00;;;11.20;99.90;;;11.37;88.05;99464.31;5095797;28;20051;-78
2021/05/22 02:54:32;;;;;;;18.88;7.00;;;11.20;99.90;;;11.44;88.25;99471.16;5096273;28;20040;-77
2021/05/22 02:57:00;;;;;;;22.70;7.75;;;11.20;99.90;;;11.49;88.47;99464.81;5077463;28;20066;-75
2021/05/22 02:59:29;;;;;;;18.55;7.05;;;11.30;99.90;;;11.45;88.37;99442.00;5095845;28;20408;-78
2021/05/22 03:01:58;;;;;;;24.73;7.63;;;11.20;99.90;;;11.51;88.36;99459.47;5095883;28;20048;-72
2021/05/22 03:04:26;;;;;;;21.58;7.63;;;11.30;99.90;;;11.44;88.67;99472.00;5095711;28;20044;-72
2021/05/22 03:06:54;;;;;;;21.65;7.00;;;11.20;99.90;;;11.50;88.52;99473.59;5095503;28;20559;-72
2021/05/22 03:09:22;;;;;;;24.70;8.05;;;11.30;99.90;;;11.48;88.76;99460.41;5095599;28;20428;-69
2021/05/22 03:11:51;;;;;;;21.00;7.20;;;11.20;99.90;;;11.38;89.04;99471.34;5096309;28;20101;-68
2021/05/22 03:14:19;;;;;;;26.30;7.68;;;11.20;99.90;;;11.45;89.26;99468.47;5095957;28;20052;-69
2021/05/22 03:16:47;;;;;;;14.15;6.63;;;11.20;99.90;;;11.44;89.22;99468.53;5095326;28;20044;-74
2021/05/22 03:19:15;;;;;;;16.85;6.88;;;11.20;99.90;;;11.44;89.18;99493.19;5077504;28;20048;-78
2021/05/22 03:21:43;;;;;;;18.48;6.65;;;11.20;99.90;;;11.43;89.36;99464.13;5095644;28;20117;-68
2021/05/22 03:24:12;;;;;;;14.50;6.05;;;11.20;99.90;;;11.39;89.44;99479.25;5095284;28;20067;-71
2021/05/22 03:26:40;;;;;;;20.25;7.13;;;11.20;99.90;;;11.38;89.61;99477.50;5095501;28;20085;-72
2021/05/22 03:29:08;;;;;;;17.52;6.05;;;11.10;99.90;;;11.33;89.99;99479.41;5077231;28;20044;-68
2021/05/22 03:31:36;;;;;;;21.35;6.00;;;11.10;99.90;;;11.35;90.16;99467.00;5094857;28;20044;-72
2021/05/22 03:34:04;;;;;;;17.65;6.85;;;11.10;99.90;;;11.41;90.48;99482.72;5094537;28;20190;-68
2021/05/22 03:36:33;;;;;;;18.60;7.07;;;11.10;99.90;;;11.34;90.69;99473.19;5094963;28;20048;-71
2021/05/22 03:39:02;;;;;;;20.20;6.80;;;11.10;99.90;;;11.38;90.92;99477.50;5095042;28;20044;-70
2021/05/22 03:41:30;;;;;;;24.20;6.90;;;11.10;99.90;;;11.32;90.68;99475.06;5095017;28;20052;-68
2021/05/22 03:43:58;;;;;;;17.83;6.88;;;11.10;99.90;;;11.29;90.67;99466.31;5095034;28;20044;-75
2021/05/22 03:46:26;;;;;;;16.42;6.07;;;11.10;99.90;;;11.26;90.67;99475.22;5094999;28;20101;-74
2021/05/22 03:48:54;;;;;;;18.15;6.22;;;11.10;99.90;;;11.31;90.69;99461.84;5094474;28;20044;-73
2021/05/22 03:51:22;;;;;;;14.07;6.95;;;11.00;99.90;;;11.08;90.79;99448.44;5094881;28;20044;-74
2021/05/22 03:53:51;;;;;;;12.85;6.43;;;11.00;99.90;;;11.06;90.73;99474.06;5094825;28;20040;-73
2021/05/22 03:56:19;;;;;;;17.65;7.22;;;11.00;99.90;;;11.23;90.77;99462.06;5094707;28;20052;-71
2021/05/22 03:58:47;;;;;;;16.95;6.63;;;11.00;99.90;;;11.29;90.68;99482.19;5094770;28;20100;-73
2021/05/22 04:01:15;;;;;;;14.77;7.05;;;11.00;99.90;;;11.28;90.80;99497.22;5094404;28;20571;-72
2021/05/22 04:03:43;;;;;;;14.43;6.32;;;11.10;99.90;;;11.34;90.97;99483.78;5094661;28;20044;-73
2021/05/22 04:06:10;;;;;;;19.98;7.75;;;11.10;99.90;;;11.23;91.10;99483.25;5094606;28;20051;-73
2021/05/22 04:08:38;;;;;;;14.02;6.15;;;11.00;99.90;;;11.24;91.24;99485.00;5076227;28;20101;-72
2021/05/22 04:11:07;;;;;;;17.83;7.43;;;11.00;99.90;;;11.32;91.33;99487.41;5094067;28;20413;-72
2021/05/22 04:13:35;;;;;;;16.92;6.65;;;11.10;99.90;;;11.21;91.47;99479.78;5094182;28;20040;-73
2021/05/22 04:16:04;;;;;;;12.55;6.13;;;11.10;99.90;;;11.23;91.55;99492.94;5094140;28;20566;-73
2021/05/22 04:18:32;;;;;;;14.02;6.30;;;11.00;99.90;;;11.23;91.87;99501.78;5094321;28;20048;-73
2021/05/22 04:21:00;;;;;;;16.42;6.05;;;11.00;99.90;;;11.31;91.85;99502.41;5094547;28;20055;-73
2021/05/22 04:23:28;;;;;;;17.02;7.03;;;11.00;99.90;;;11.30;92.25;99503.34;5093966;28;20052;-73
2021/05/22 04:25:56;;;;;;;12.50;6.65;;;11.10;99.90;;;11.41;92.40;99503.88;5094187;28;20048;-72
2021/05/22 04:28:25;;;;;;;21.70;7.25;;;11.20;99.90;;;11.47;92.25;99509.00;5075978;28;20481;-72
2021/05/22 04:30:53;;;;;;;14.73;7.18;;;11.20;99.90;;;11.43;92.32;99510.00;5094133;28;20051;-72
2021/05/22 04:33:21;;;;;;;20.17;7.63;;;11.20;99.90;;;11.51;92.42;99508.00;5094083;28;20047;-72
2021/05/22 04:35:49;;;;;;;23.10;7.80;;;11.20;99.90;;;11.49;92.56;99507.19;5094028;28;20109;-72
2021/05/22 04:38:17;;;;;;;19.02;7.40;;;11.30;99.90;;;11.53;92.75;99506.19;5075800;28;20044;-72
2021/05/22 04:40:45;;;;;;;17.80;7.65;;;11.30;99.90;;;11.58;92.68;99514.84;5094033;28;20048;-71
2021/05/22 04:43:14;;;;;;;24.27;7.45;;;11.30;99.90;;;11.55;92.82;99509.66;5093570;28;20146;-71
2021/05/22 04:45:43;;;;;;;16.23;6.70;;;11.30;99.90;;;11.09;92.95;99436.94;5075696;28;20109;-72
2021/05/22 04:48:11;;;;;;;19.25;7.43;;;11.30;99.90;;;11.65;93.01;99524.34;5093522;28;20127;-71
2021/05/22 04:50:39;;;;;;;18.95;7.85;;;11.30;99.90;;;11.64;92.85;99538.50;5075435;28;20052;-73
2021/05/22 04:53:07;;;;;;;18.95;7.40;;;11.40;99.90;;;11.65;93.01;99529.66;5093780;28;20425;-72
2021/05/22 04:55:35;;;;;;;25.35;8.30;;;11.40;99.90;;;11.68;93.00;99520.75;5093506;28;20496;-71
2021/05/22 04:58:03;;;;;;;24.67;8.02;;;11.40;99.90;;;11.69;93.14;99531.28;5093635;28;20048;-72
2021/05/22 05:00:31;;;;;;;27.08;8.43;;;11.40;99.90;;;11.79;92.94;99538.06;5093592;28;20040;-73
2021/05/22 05:03:00;;;;;;;19.75;7.68;;;11.50;99.90;;;11.85;92.80;99538.75;5093570;28;20143;-73
2021/05/22 05:05:28;;;;;;;22.40;7.63;;;11.50;99.90;;;11.87;92.82;99537.81;5093761;28;20428;-72
2021/05/22 05:07:56;;;;;;;18.77;7.93;;;11.60;99.90;;;11.93;92.65;99536.75;5075591;28;20080;-71
2021/05/22 05:10:25;;;;;;;18.38;7.78;;;11.60;99.90;;;11.91;92.26;99522.69;5092776;28;20047;-72
2021/05/22 05:12:53;;;;;;;20.15;6.82;;;11.70;99.90;;;11.88;92.64;99541.34;5093429;28;20044;-72
2021/05/22 05:15:21;;;;;;;26.08;7.50;;;11.60;99.90;;;11.96;92.70;99542.84;5075171;28;20531;-71
2021/05/22 05:17:49;;;;;;;24.83;7.72;;;11.70;99.90;;;11.85;92.59;99530.81;5093347;28;20382;-72
2021/05/22 05:20:18;;;;;;;27.42;7.85;;;11.70;99.90;;;11.87;92.89;99545.75;5093300;28;20059;-71
2021/05/22 05:22:50;;;;;;;25.55;7.00;;;11.60;99.90;;;11.86;93.15;99537.88;5092982;28;20125;-72
2021/05/22 05:25:18;;;;;;;26.80;7.80;;;11.60;99.90;;;11.87;93.37;99542.22;5093202;28;20489;-73
2021/05/22 05:27:46;;;;;;;26.98;8.25;;;11.60;99.90;;;11.88;93.25;99536.91;5093151;28;20447;-73
2021/05/22 05:30:16;;;;;;;26.20;8.20;;;11.60;99.90;;;11.95;93.15;99542.88;5092728;28;20040;-74
2021/05/22 05:32:45;;;;;;;22.52;6.75;;;11.70;99.90;;;11.97;93.65;99560.47;5093158;28;20055;-73
2021/05/22 05:35:13;;;;;;;27.30;8.65;;;11.70;99.90;;;11.44;93.77;99466.72;5093107;28;20047;-74
2021/05/22 05:37:42;;;;;;;25.95;8.35;;;11.70;99.90;;;12.12;93.73;99565.28;5093068;28;20051;-73
2021/05/22 05:40:11;;;;;;;26.88;7.72;;;11.80;99.90;;;12.13;93.57;99563.50;5092746;28;20044;-74
2021/05/22 05:42:39;;;;;;;29.60;8.00;;;11.90;99.90;;;12.07;93.76;99559.25;5074993;28;20500;-74
2021/05/22 05:45:08;;;;;;;32.22;7.82;;;11.80;99.90;;;12.03;93.95;99567.34;5092895;28;20044;-74
2021/05/22 05:47:36;;;;;;;28.00;7.00;;;11.80;99.90;;;12.09;93.91;99569.81;5074855;28;20048;-74
2021/05/22 05:50:06;;;;;;;27.52;7.53;;;11.80;99.90;;;12.06;94.05;99570.75;5092932;28;20044;-75
2021/05/22 05:52:34;;;;;;;24.30;6.07;;;11.80;99.90;;;11.71;93.94;99516.22;5092690;28;20043;-75
2021/05/22 05:55:04;;;;;;;26.08;6.93;;;11.80;99.90;;;12.20;93.93;99578.28;5093005;28;20048;-74
2021/05/22 05:57:33;;;;;;;29.13;7.88;;;11.90;99.90;;;12.22;93.44;99579.97;5096639;28;20052;-74
2021/05/22 06:00:03;;;;;;;21.70;6.97;;;11.90;99.90;;;12.13;93.49;99585.59;5097147;28;20081;-73
2021/05/22 06:02:32;;;;;;;24.25;7.45;;;11.90;99.90;;;12.28;93.74;99578.91;5096792;28;20048;-75
2021/05/22 06:05:00;;;;;;;27.85;6.70;;;12.00;99.90;;;12.29;93.33;99592.09;5096926;28;20063;-74
2021/05/22 06:07:28;;;;;;;23.95;6.03;;;12.00;99.90;;;12.31;93.05;99576.19;5096861;28;20044;-75
2021/05/22 06:09:57;;;;;;;25.77;7.05;;;12.00;99.90;;;12.30;92.86;99593.00;5078443;28;20445;-72
2021/05/22 06:12:26;;;;;;;26.15;6.55;;;12.00;99.90;;;12.31;92.94;99589.44;5096810;28;20123;-74
2021/05/22 06:14:57;;;;;;;25.08;7.50;;;12.00;99.90;;;12.18;93.17;99561.56;5096701;28;20066;-74
2021/05/22 06:17:25;;;;;;;26.67;7.07;;;12.00;99.90;;;12.31;93.19;99597.38;5096987;28;20055;-74
2021/05/22 06:19:53;;;;;;;22.95;5.97;;;12.00;99.90;;;12.31;92.94;99592.94;5096587;28;20077;-74
2021/05/22 06:22:21;;;;;;;22.30;6.15;;;12.00;99.90;;;12.32;92.88;99607.06;5096320;28;20036;-74
2021/05/22 06:24:49;;;;;;;23.10;7.03;;;12.00;99.90;;;12.27;92.81;99611.66;5078356;28;20040;-74
2021/05/22 06:27:17;;;;;;;19.73;7.32;;;12.00;99.90;;;12.27;93.12;99620.47;5096726;28;20062;-75
2021/05/22 06:29:46;;;;;;;20.17;6.25;;;12.00;99.90;;;12.27;92.94;99606.34;5096454;28;20055;-75
2021/05/22 06:32:13;;;;;;;18.55;6.50;;;12.00;99.90;;;12.18;93.55;99596.91;5096431;28;20417;-73
2021/05/22 06:34:41;;;;;;;18.92;5.57;;;11.90;99.90;;;12.18;93.31;99609.28;5078193;28;20059;-74
2021/05/22 06:37:10;;;;;;;16.10;5.93;;;11.90;99.90;;;12.31;93.42;99621.25;5096360;28;20056;-74
2021/05/22 06:39:38;;;;;;;19.30;6.75;;;12.00;99.90;;;12.36;93.32;99616.66;5096256;28;20043;-75
2021/05/22 06:42:06;;;;;;;17.52;6.20;;;12.10;99.90;;;12.45;93.17;99613.69;5096183;28;20158;-74
2021/05/22 06:44:38;;;;;;;14.75;5.75;;;12.10;99.90;;;12.43;93.10;99620.84;5096192;28;20040;-74
2021/05/22 06:47:07;;;;;;;16.58;6.45;;;12.10;99.90;;;12.48;93.50;99624.22;5096173;28;20070;-74
2021/05/22 06:49:35;;;;;;;15.70;5.65;;;12.20;99.90;;;12.62;93.07;99633.47;5095484;28;20048;-75
2021/05/22 06:52:04;;;;;;;16.23;5.53;;;12.30;99.90;;;12.53;93.10;99627.59;5078033;28;20515;-73
2021/05/22 06:54:34;;;;;;;18.63;6.53;;;12.30;99.90;;;12.47;93.32;99633.97;5095968;28;20077;-74
2021/05/22 06:57:02;;;;;;;16.92;5.60;;;12.20;99.90;;;12.54;93.80;99642.59;5096170;28;20063;-75
2021/05/22 06:59:30;;;;;;;12.57;5.57;;;12.20;99.90;;;12.72;93.39;99639.34;5095894;28;20047;-72
2021/05/22 07:01:58;;;;;;;15.27;5.75;;;12.40;99.90;;;12.75;92.86;99649.88;5095555;28;20460;-71
2021/05/22 07:04:27;;;;;;;15.15;5.70;;;12.40;99.90;;;12.72;92.73;99644.63;5095786;28;20058;-72
2021/05/22 07:06:55;;;;;;;21.85;6.57;;;12.50;99.90;;;12.72;92.62;99655.25;5095632;28;20036;-72
2021/05/22 07:09:23;;;;;;;14.25;5.35;;;12.50;99.90;;;12.72;92.70;99662.38;5095813;28;20044;-71
2021/05/22 07:11:52;;;;;;;16.95;6.93;;;12.40;99.90;;;12.77;92.23;99652.47;5095819;28;20052;-73
2021/05/22 07:14:20;;;;;;;11.07;5.53;;;12.50;99.90;;;12.71;92.36;99653.53;5077398;28;20386;-72
2021/05/22 07:16:55;;;;;;;10.73;5.10;;;12.50;99.90;;;12.74;92.69;99674.66;5096062;28;20056;-73
2021/05/22 07:19:24;;;;;;;15.95;5.65;;;12.40;99.90;;;12.82;92.29;99669.97;5095663;28;20085;-72
2021/05/22 07:21:53;;;;;;;18.67;5.72;;;12.50;99.90;;;12.87;92.33;99678.66;5077090;28;20139;-72
2021/05/22 07:24:22;;;;;;;14.18;5.75;;;12.60;99.90;;;12.90;91.75;99677.66;5095138;28;20440;-73
2021/05/22 07:26:51;;;;;;;18.38;5.55;;;12.60;99.90;;;13.00;91.67;99687.94;5095530;28;20054;-74
2021/05/22 07:29:19;;;;;;;17.85;5.50;;;12.70;99.90;;;13.03;91.50;99690.50;5095314;28;20484;-72
2021/05/22 07:31:47;;;;;;;16.60;5.30;;;12.70;99.90;;;13.10;91.12;99688.53;5094919;28;20036;-73
2021/05/22 07:34:15;;;;;;;16.63;6.22;;;12.80;99.90;;;13.14;91.00;99696.31;5095167;28;20514;-73
2021/05/22 07:36:43;;;;;;;16.70;5.60;;;12.80;99.90;;;13.04;91.11;99688.75;5095430;28;20048;-73
2021/05/22 07:39:14;;;;;;;13.82;5.07;;;12.80;99.90;;;13.05;91.04;99695.78;5095148;28;20113;-73
2021/05/22 07:41:46;;;;;;;13.48;5.35;;;12.80;99.90;;;13.15;91.00;99708.69;5076686;28;20074;-73
2021/05/22 07:44:14;;;;;;;11.20;5.47;;;12.80;99.90;;;13.16;90.75;99688.34;5095032;28;20051;-73
2021/05/22 07:46:43;;;;;;;9.55;4.82;;;12.90;99.90;;;13.18;90.48;99708.56;5095343;28;20055;-73
2021/05/22 07:49:11;;;;;;;13.18;4.90;;;12.90;99.90;;;13.10;90.73;99725.72;5076717;28;20048;-73
2021/05/22 07:51:40;;;;;;;11.52;4.85;;;12.90;99.90;;;13.11;90.80;99717.69;5076605;28;20072;-73
2021/05/22 07:54:09;;;;;;;12.35;4.78;;;12.80;99.90;;;13.19;90.45;99726.25;5094846;28;20040;-73
2021/05/22 07:56:37;;;;;;;12.20;5.38;;;12.90;99.90;;;13.18;90.62;99735.13;5094871;28;20036;-72
2021/05/22 07:59:06;;;;;;;8.98;4.28;;;12.90;99.90;;;13.24;90.33;99729.63;5094745;28;20048;-74
2021/05/22 08:01:34;;;;;;;9.90;4.45;;;13.00;99.90;;;13.24;90.05;99752.69;5076545;28;20048;-73
2021/05/22 08:04:03;;;;;;;11.15;5.05;;;13.00;99.90;;;13.38;89.75;99751.28;5094372;28;20052;-73
2021/05/22 08:06:31;;;;;;;10.98;4.63;;;13.00;99.90;;;13.41;89.62;99742.34;5094278;28;20047;-74
2021/05/22 08:08:59;;;;;;;10.68;4.55;;;13.10;99.90;;;13.13;89.66;99691.06;5094534;28;20047;-73
2021/05/22 08:11:26;;;;;;;14.93;4.97;;;13.10;99.90;;;13.58;89.50;99751.47;5094334;28;20048;-73
2021/05/22 08:13:55;;;;;;;10.73;5.82;;;13.20;99.90;;;13.70;89.31;99754.63;5094075;28;20518;-73
2021/05/22 08:16:23;;;;;;;9.20;5.28;;;13.40;99.90;;;13.71;89.50;99757.22;5075950;28;20139;-72
2021/05/22 08:18:51;;;;;;;9.88;5.20;;;13.40;99.90;;;13.70;89.28;99758.16;5093727;28;20424;-73
2021/05/22 08:21:22;;;;;;;12.40;4.82;;;13.40;99.90;;;13.73;88.93;99759.81;5094037;28;20056;-73
2021/05/22 08:23:51;;;;;;;9.15;5.15;;;13.40;99.90;;;13.84;89.03;99761.19;5094324;28;20167;-74
2021/05/22 08:26:19;;;;;;;7.05;4.53;;;13.50;99.90;;;13.81;88.42;99763.09;5094054;28;20050;-74
2021/05/22 08:29:09;;;;;;;7.90;4.95;;;13.50;99.90;;;13.79;88.20;99767.59;5094117;28;20088;-73
2021/05/22 08:31:37;;;;;;;7.07;4.68;;;13.50;99.90;;;13.81;88.09;99777.25;5094085;28;20100;-73
2021/05/22 08:34:05;;;;;;;12.30;4.70;;;13.50;99.90;;;13.80;87.94;99778.16;5093831;28;20554;-72
2021/05/22 08:36:33;;;;;;;9.80;5.00;;;13.60;99.90;;;13.67;87.86;99757.38;5094070;28;20432;-73
2021/05/22 08:39:02;;;;;;;12.13;5.20;;;13.60;99.90;;;13.73;88.22;99783.75;5093764;28;20493;-72
2021/05/22 08:41:33;;;;;;;8.15;4.97;;;13.40;99.90;;;13.71;87.87;99790.91;5093988;28;20386;-73
2021/05/22 08:44:03;;;;;;;9.25;5.10;;;13.40;99.90;;;13.59;88.12;99785.09;5093833;28;20378;-73
2021/05/22 08:46:33;;;;;;;9.57;5.23;;;13.40;99.90;;;13.65;88.54;99809.69;5094292;28;20153;-73
2021/05/22 08:49:01;;;;;;;11.25;5.43;;;13.40;99.90;;;13.56;88.31;99801.16;5093767;28;20326;-74
2021/05/22 08:51:29;;;;;;;12.68;5.85;;;13.40;99.90;;;13.50;88.51;99808.44;5093672;28;20535;-73
2021/05/22 08:53:57;;;;;;;9.93;5.82;;;13.30;99.90;;;13.33;88.73;99802.81;5075645;28;20050;-74
2021/05/22 08:56:25;;;;;;;13.45;6.13;;;13.20;99.90;;;13.21;89.43;99809.41;5093465;28;20127;-74
2021/05/22 08:58:53;;;;;;;9.15;6.43;;;13.00;99.90;;;13.18;89.47;99808.63;5093678;28;20489;-73
2021/05/22 09:01:21;;;;;;;10.02;6.70;;;13.00;99.90;;;13.07;89.55;99822.22;5093609;28;20040;-74
2021/05/22 09:03:55;;;;;;;14.57;7.63;;;12.90;99.90;;;12.98;90.10;99832.22;5075414;28;20052;-73
2021/05/22 09:06:24;;;;;;;12.43;7.70;;;12.80;99.90;;;12.80;90.89;99832.78;5093579;28;20044;-73
2021/05/22 09:09:04;;;;;;;10.88;7.43;;;12.70;99.90;;;12.81;91.58;99832.75;5093131;28;20039;-74
2021/05/22 09:11:47;;;;;;;15.35;8.32;;;12.60;99.90;;;12.71;91.79;99841.91;5074964;28;20056;-74
2021/05/22 09:14:40;;;;;;;9.30;5.32;;;12.50;99.90;;;12.55;91.56;99848.56;5075244;28;20051;-74
2021/05/22 09:17:10;;;;;;;8.25;4.10;;;12.40;99.90;;;12.00;91.17;99829.81;5093186;28;20122;-74
2021/05/22 09:19:39;;;;;;;7.00;4.10;;;12.10;99.90;;;12.29;91.75;99867.84;5093305;28;20066;-73
2021/05/22 09:22:23;;;;;;;11.63;4.85;;;12.10;99.90;;;12.29;91.91;99870.50;5093128;28;20105;-73
2021/05/22 09:25:03;;;;;;;9.70;5.15;;;12.10;99.90;;;12.11;92.75;99873.66;5075398;28;20052;-73
2021/05/22 09:27:33;;;;;;;7.13;4.20;;;12.00;99.90;;;12.20;93.06;99881.38;5092891;28;20138;-73
2021/05/22 09:30:11;;;;;;;8.02;4.38;;;12.00;99.90;;;12.22;93.07;99881.31;5092470;28;20058;-73
2021/05/22 09:32:40;;;;;;;12.23;5.45;;;12.00;99.90;;;12.19;92.88;99902.63;5075296;28;20059;-73
2021/05/22 09:35:14;;;;;;;7.93;5.10;;;12.00;99.90;;;12.19;92.78;99894.66;5093134;28;20089;-73
2021/05/22 09:37:47;;;;;;;9.43;4.90;;;12.00;99.90;;;12.11;93.21;99908.13;5074925;28;20044;-73
2021/05/22 09:40:19;;;;;;;11.13;5.65;;;11.90;99.90;;;12.07;93.07;99909.13;5075056;28;20048;-73
2021/05/22 09:42:48;;;;;;;7.35;5.07;;;11.90;99.90;;;11.47;92.97;99813.50;5093114;28;20052;-73
2021/05/22 09:45:31;;;;;;;8.68;5.55;;;11.80;99.90;;;12.02;93.25;99903.03;5074918;28;20051;-73
2021/05/22 09:48:09;;;;;;;11.18;6.20;;;11.90;99.90;;;11.61;93.23;99824.59;5093025;28;20048;-74
2021/05/22 09:50:42;;;;;;;18.45;7.43;;;12.00;99.90;;;12.36;93.06;99924.25;5074857;28;20094;-75
2021/05/22 09:53:26;;;;;;;9.73;6.00;;;12.10;99.90;;;12.20;91.92;99928.19;5093030;28;20397;-73
2021/05/22 09:56:18;;;;;;;9.07;5.57;;;12.00;99.90;;;12.18;91.74;99937.97;5092748;28;20044;-74
2021/05/22 09:58:50;;;;;;;8.02;5.32;;;12.00;99.90;;;12.20;91.11;99930.84;5074873;28;20052;-74
2021/05/22 10:01:20;;;;;;;12.00;5.75;;;12.00;99.90;;;12.18;90.68;99957.41;5092867;28;20572;-74
2021/05/22 10:03:48;;;;;;;9.88;5.78;;;12.00;99.90;;;12.26;91.19;99973.13;5092904;28;20063;-74
2021/05/22 10:06:17;;;;;;;10.38;5.75;;;12.00;99.90;;;11.78;91.25;99903.69;5092843;28;20442;-73
2021/05/22 10:08:46;;;;;;;9.13;5.95;;;12.10;99.90;;;12.08;90.70;99968.31;5092539;28;20052;-74
2021/05/22 10:11:14;;;;;;;10.98;5.47;;;11.90;99.90;;;12.16;90.08;99980.44;5074285;28;20101;-73
2021/05/22 10:13:43;;;;;;;9.68;5.65;;;12.00;99.90;;;12.10;89.97;99990.34;5092428;28;20401;-74
2021/05/22 10:16:11;;;;;;;9.98;5.95;;;12.00;99.90;;;12.22;90.42;99997.97;5074646;28;20052;-73
2021/05/22 10:18:39;;;;;;;8.63;6.13;;;12.00;99.90;;;12.03;90.00;99997.56;5092734;28;20374;-74
2021/05/22 10:21:07;;;;;;;11.18;6.22;;;11.90;99.90;;;12.12;89.54;100007.03;5092434;28;20394;-74
2021/05/22 10:23:36;;;;;;;11.57;6.68;;;11.90;99.90;;;12.09;89.16;100018.63;5092711;28;20415;-74